sensor_id;sensor_type;location;lat;lon;timestamp;pressure;altitude;pressure_sealevel;temperature;humidity
46199;BME280;31928;52.104;10.030;2022-08-21T04:09:20;100558.53;;;23.30;42.82
46199;BME280;31928;52.104;10.030;2022-08-21T04:11:47;100560.78;;;23.23;42.89
46199;BME280;31928;52.104;10.030;2022-08-21T04:14:14;100568.47;;;23.21;42.67
46199;BME280;31928;52.104;10.030;2022-08-21T04:16:42;100567.94;;;23.19;42.94
46199;BME280;31928;52.104;10.030;2022-08-21T04:19:09;100565.78;;;23.16;43.12
46199;BME280;31928;52.104;10.030;2022-08-21T04:21:37;100562.22;;;23.16;43.12
46199;BME280;31928;52.104;10.030;2022-08-21T04:24:05;100572.38;;;23.15;42.74
46199;BME280;31928;52.104;10.030;2022-08-21T04:26:32;100572.38;;;23.15;42.95
46199;BME280;31928;52.104;10.030;2022-08-21T04:29:00;100569.63;;;23.15;42.78
46199;BME280;31928;52.104;10.030;2022-08-21T04:31:27;100576.19;;;23.14;42.84
46199;BME280;31928;52.104;10.030;2022-08-21T04:33:55;100575.69;;;23.12;43.16
46199;BME280;31928;52.104;10.030;2022-08-21T04:36:22;100581.66;;;23.14;43.15
46199;BME280;31928;52.104;10.030;2022-08-21T04:38:51;100586.34;;;23.14;42.93
46199;BME280;31928;52.104;10.030;2022-08-21T04:41:20;100580.06;;;23.13;42.99
46199;BME280;31928;52.104;10.030;2022-08-21T04:43:53;100587.72;;;23.11;42.91
46199;BME280;31928;52.104;10.030;2022-08-21T04:46:22;100584.19;;;23.11;43.44
46199;BME280;31928;52.104;10.030;2022-08-21T04:48:49;100576.78;;;23.11;43.46
46199;BME280;31928;52.104;10.030;2022-08-21T04:51:24;100584.34;;;23.19;42.85
46199;BME280;31928;52.104;10.030;2022-08-21T04:53:57;100579.19;;;23.18;43.11
46199;BME280;31928;52.104;10.030;2022-08-21T04:56:29;100583.31;;;23.15;43.35
46199;BME280;31928;52.104;10.030;2022-08-21T04:58:59;100581.16;;;23.12;43.21
46199;BME280;31928;52.104;10.030;2022-08-21T05:01:31;100576.78;;;23.11;43.61
46199;BME280;31928;52.104;10.030;2022-08-21T05:03:59;100574.34;;;23.10;43.50
46199;BME280;31928;52.104;10.030;2022-08-21T05:06:28;100579.22;;;23.13;43.58
46199;BME280;31928;52.104;10.030;2022-08-21T05:08:57;100587.72;;;23.11;43.66
46199;BME280;31928;52.104;10.030;2022-08-21T05:11:29;100595.66;;;23.13;43.68
46199;BME280;31928;52.104;10.030;2022-08-21T05:13:56;100593.75;;;23.13;43.56
46199;BME280;31928;52.104;10.030;2022-08-21T05:16:23;100598.09;;;23.14;44.01
46199;BME280;31928;52.104;10.030;2022-08-21T05:19:06;100594.25;;;23.15;43.57
46199;BME280;31928;52.104;10.030;2022-08-21T05:21:37;100594.75;;;23.22;43.66
46199;BME280;31928;52.104;10.030;2022-08-21T05:24:05;100595.31;;;23.19;44.20
46199;BME280;31928;52.104;10.030;2022-08-21T05:26:32;100593.41;;;23.20;44.22
46199;BME280;31928;52.104;10.030;2022-08-21T05:29:10;100587.09;;;23.19;44.23
46199;BME280;31928;52.104;10.030;2022-08-21T05:31:38;100594.50;;;23.19;43.83
46199;BME280;31928;52.104;10.030;2022-08-21T05:34:05;100588.72;;;23.20;44.35
46199;BME280;31928;52.104;10.030;2022-08-21T05:36:32;100593.41;;;23.20;44.49
46199;BME280;31928;52.104;10.030;2022-08-21T05:38:58;100595.84;;;23.21;44.73
46199;BME280;31928;52.104;10.030;2022-08-21T05:41:25;100595.84;;;23.21;44.57
46199;BME280;31928;52.104;10.030;2022-08-21T05:43:51;100593.09;;;23.21;44.92
46199;BME280;31928;52.104;10.030;2022-08-21T05:46:18;100594.75;;;23.22;45.03
46199;BME280;31928;52.104;10.030;2022-08-21T05:48:44;100587.34;;;23.23;44.89
46199;BME280;31928;52.104;10.030;2022-08-21T05:51:13;100592.22;;;23.26;44.88
46199;BME280;31928;52.104;10.030;2022-08-21T05:53:41;100588.38;;;23.27;45.30
46199;BME280;31928;52.104;10.030;2022-08-21T05:56:09;100592.75;;;23.28;45.14
46199;BME280;31928;52.104;10.030;2022-08-21T05:58:36;100587.50;;;23.31;44.84
46199;BME280;31928;52.104;10.030;2022-08-21T06:01:03;100589.97;;;23.33;45.28
46199;BME280;31928;52.104;10.030;2022-08-21T06:03:33;100597.28;;;23.37;46.04
46199;BME280;31928;52.104;10.030;2022-08-21T06:06:01;100597.28;;;23.37;45.21
46199;BME280;31928;52.104;10.030;2022-08-21T06:08:29;100601.69;;;23.38;45.58
46199;BME280;31928;52.104;10.030;2022-08-21T06:10:58;100605.47;;;23.42;46.22
46199;BME280;31928;52.104;10.030;2022-08-21T06:13:25;100596.72;;;23.40;46.06
46199;BME280;31928;52.104;10.030;2022-08-21T06:16:13;100599.28;;;23.55;44.81
46199;BME280;31928;52.104;10.030;2022-08-21T06:18:43;100605.47;;;23.42;46.08
46199;BME280;31928;52.104;10.030;2022-08-21T06:21:10;100599.97;;;23.42;46.64
46199;BME280;31928;52.104;10.030;2022-08-21T06:23:38;100604.06;;;23.45;46.57
46199;BME280;31928;52.104;10.030;2022-08-21T06:26:05;100602.66;;;23.47;47.44
46199;BME280;31928;52.104;10.030;2022-08-21T06:28:34;100613.03;;;23.50;46.24
46199;BME280;31928;52.104;10.030;2022-08-21T06:31:01;100603.13;;;23.54;47.33
46199;BME280;31928;52.104;10.030;2022-08-21T06:33:27;100604.16;;;23.58;46.63
46199;BME280;31928;52.104;10.030;2022-08-21T06:35:58;100605.22;;;23.62;47.66
46199;BME280;31928;52.104;10.030;2022-08-21T06:38:24;100593.69;;;23.65;47.28
46199;BME280;31928;52.104;10.030;2022-08-21T06:40:51;100600.81;;;23.66;47.21
46199;BME280;31928;52.104;10.030;2022-08-21T06:43:18;100598.06;;;23.66;47.21
46199;BME280;31928;52.104;10.030;2022-08-21T06:45:45;100599.16;;;23.65;47.93
46199;BME280;31928;52.104;10.030;2022-08-21T06:48:12;100593.69;;;23.65;48.53
46199;BME280;31928;52.104;10.030;2022-08-21T06:50:44;100592.06;;;23.64;48.62
46199;BME280;31928;52.104;10.030;2022-08-21T06:53:13;100598.63;;;23.63;47.64
46199;BME280;31928;52.104;10.030;2022-08-21T06:55:40;100601.38;;;23.63;48.01
46199;BME280;31928;52.104;10.030;2022-08-21T06:58:08;100595.91;;;23.63;48.28
46199;BME280;31928;52.104;10.030;2022-08-21T07:00:39;100592.53;;;23.71;48.41
46199;BME280;31928;52.104;10.030;2022-08-21T07:03:06;100606.75;;;23.73;49.63
46199;BME280;31928;52.104;10.030;2022-08-21T07:05:33;100600.13;;;23.79;47.89
46199;BME280;31928;52.104;10.030;2022-08-21T07:07:59;100592.94;;;23.83;48.29
46199;BME280;31928;52.104;10.030;2022-08-21T07:10:26;100595.91;;;23.86;47.59
46199;BME280;31928;52.104;10.030;2022-08-21T07:12:53;100590.66;;;23.90;48.44
46199;BME280;31928;52.104;10.030;2022-08-21T07:15:28;100585.41;;;23.93;47.99
46199;BME280;31928;52.104;10.030;2022-08-21T07:17:56;100580.97;;;23.97;47.97
46199;BME280;31928;52.104;10.030;2022-08-21T07:20:23;100582.00;;;24.01;48.86
46199;BME280;31928;52.104;10.030;2022-08-21T07:22:50;100590.47;;;24.05;48.11
46199;BME280;31928;52.104;10.030;2022-08-21T07:25:17;100586.00;;;24.09;48.21
46199;BME280;31928;52.104;10.030;2022-08-21T07:27:44;100584.31;;;24.13;48.33
46199;BME280;31928;52.104;10.030;2022-08-21T07:30:10;100586.44;;;24.16;48.06
46199;BME280;31928;52.104;10.030;2022-08-21T07:32:37;100578.69;;;24.22;47.58
46199;BME280;31928;52.104;10.030;2022-08-21T07:35:04;100585.19;;;24.26;47.75
46199;BME280;31928;52.104;10.030;2022-08-21T07:37:31;100583.50;;;24.30;47.67
46199;BME280;31928;52.104;10.030;2022-08-21T07:39:57;100584.53;;;24.34;47.38
46199;BME280;31928;52.104;10.030;2022-08-21T07:42:24;100571.88;;;24.38;47.10
46199;BME280;31928;52.104;10.030;2022-08-21T07:44:54;100572.31;;;24.45;46.88
46199;BME280;31928;52.104;10.030;2022-08-21T07:47:22;100578.84;;;24.49;46.26
46199;BME280;31928;52.104;10.030;2022-08-21T07:50:11;100572.69;;;24.57;46.79
46199;BME280;31928;52.104;10.030;2022-08-21T07:52:39;100572.88;;;24.61;46.00
46199;BME280;31928;52.104;10.030;2022-08-21T07:55:09;100573.03;;;24.69;45.87
46199;BME280;31928;52.104;10.030;2022-08-21T07:57:36;100573.44;;;24.76;45.76
46199;BME280;31928;52.104;10.030;2022-08-21T08:00:08;100572.25;;;24.82;44.84
46199;BME280;31928;52.104;10.030;2022-08-21T08:02:35;100571.06;;;24.88;44.34
46199;BME280;31928;52.104;10.030;2022-08-21T08:05:04;100579.38;;;24.96;44.57
46199;BME280;31928;52.104;10.030;2022-08-21T08:07:31;100560.41;;;25.00;44.54
46199;BME280;31928;52.104;10.030;2022-08-21T08:09:58;100567.47;;;25.06;43.03
46199;BME280;31928;52.104;10.030;2022-08-21T08:12:24;100559.63;;;25.13;43.02
46199;BME280;31928;52.104;10.030;2022-08-21T08:14:57;100569.09;;;25.20;43.47
46199;BME280;31928;52.104;10.030;2022-08-21T08:17:24;100572.78;;;25.29;42.31
46199;BME280;31928;52.104;10.030;2022-08-21T08:19:51;100566.25;;;25.39;42.55
46199;BME280;31928;52.104;10.030;2022-08-21T08:22:20;100561.38;;;25.49;42.66
46199;BME280;31928;52.104;10.030;2022-08-21T08:24:51;100554.56;;;25.60;41.67
46199;BME280;31928;52.104;10.030;2022-08-21T08:27:18;100555.19;;;25.70;41.07
46199;BME280;31928;52.104;10.030;2022-08-21T08:29:44;100557.72;;;25.80;41.07
46199;BME280;31928;52.104;10.030;2022-08-21T08:32:12;100554.84;;;25.85;39.87
46199;BME280;31928;52.104;10.030;2022-08-21T08:34:39;100545.91;;;25.93;40.44
46199;BME280;31928;52.104;10.030;2022-08-21T08:37:08;100550.97;;;26.00;40.65
46199;BME280;31928;52.104;10.030;2022-08-21T08:39:36;100550.53;;;26.06;40.57
46199;BME280;31928;52.104;10.030;2022-08-21T08:42:11;100547.44;;;26.21;40.93
46199;BME280;31928;52.104;10.030;2022-08-21T08:45:10;100545.16;;;26.36;40.70
46199;BME280;31928;52.104;10.030;2022-08-21T08:47:44;100550.63;;;26.50;40.85
46199;BME280;31928;52.104;10.030;2022-08-21T08:50:19;100552.97;;;26.65;40.84
46199;BME280;31928;52.104;10.030;2022-08-21T08:52:51;100543.34;;;26.75;39.95
46199;BME280;31928;52.104;10.030;2022-08-21T08:55:23;100545.69;;;26.90;39.82
46199;BME280;31928;52.104;10.030;2022-08-21T08:57:53;100539.34;;;27.03;38.23
46199;BME280;31928;52.104;10.030;2022-08-21T09:00:23;100536.94;;;27.19;38.22
46199;BME280;31928;52.104;10.030;2022-08-21T09:02:56;100536.34;;;27.30;38.29
46199;BME280;31928;52.104;10.030;2022-08-21T09:05:29;100539.28;;;27.33;37.55
46199;BME280;31928;52.104;10.030;2022-08-21T09:11:01;100529.78;;;27.48;37.43
46199;BME280;31928;52.104;10.030;2022-08-21T09:19:08;100530.88;;;27.69;37.60
46199;BME280;31928;52.104;10.030;2022-08-21T09:21:56;100544.16;;;27.84;38.04
46199;BME280;31928;52.104;10.030;2022-08-21T09:27:08;100532.19;;;27.96;36.70
46199;BME280;31928;52.104;10.030;2022-08-21T09:29:40;100525.38;;;28.02;35.68
46199;BME280;31928;52.104;10.030;2022-08-21T09:32:16;100530.59;;;28.12;36.40
46199;BME280;31928;52.104;10.030;2022-08-21T09:35:06;100530.28;;;28.22;36.43
46199;BME280;31928;52.104;10.030;2022-08-21T09:40:40;100517.63;;;28.38;34.48
46199;BME280;31928;52.104;10.030;2022-08-21T09:45:41;100522.16;;;28.51;34.21
46199;BME280;31928;52.104;10.030;2022-08-21T09:50:36;100518.88;;;28.66;33.94
46199;BME280;31928;52.104;10.030;2022-08-21T09:53:02;100520.03;;;28.73;32.49
46199;BME280;31928;52.104;10.030;2022-08-21T09:55:39;100524.38;;;28.83;32.24
46199;BME280;31928;52.104;10.030;2022-08-21T09:58:35;100525.66;;;28.94;31.71
46199;BME280;31928;52.104;10.030;2022-08-21T10:01:03;100518.00;;;28.99;31.31
46199;BME280;31928;52.104;10.030;2022-08-21T10:03:31;100517.81;;;29.04;31.42
46199;BME280;31928;52.104;10.030;2022-08-21T10:06:01;100523.16;;;29.09;30.54
46199;BME280;31928;52.104;10.030;2022-08-21T10:08:36;100522.22;;;29.05;30.10
46199;BME280;31928;52.104;10.030;2022-08-21T10:11:13;100511.13;;;29.13;31.89
46199;BME280;31928;52.104;10.030;2022-08-21T10:13:47;100518.13;;;29.11;31.64
46199;BME280;31928;52.104;10.030;2022-08-21T10:24:24;100492.97;;;29.41;32.29
46199;BME280;31928;52.104;10.030;2022-08-21T10:27:16;100495.56;;;29.46;31.70
46199;BME280;31928;52.104;10.030;2022-08-21T10:29:57;100494.69;;;29.54;31.54
46199;BME280;31928;52.104;10.030;2022-08-21T10:35:33;100486.97;;;29.68;30.53
46199;BME280;31928;52.104;10.030;2022-08-21T10:55:10;100476.34;;;29.99;31.00
46199;BME280;31928;52.104;10.030;2022-08-21T10:57:57;100472.50;;;30.12;30.09
46199;BME280;31928;52.104;10.030;2022-08-21T11:00:47;100464.97;;;30.33;28.54
46199;BME280;31928;52.104;10.030;2022-08-21T11:06:24;100474.53;;;30.55;29.03
46199;BME280;31928;52.104;10.030;2022-08-21T11:08:55;100468.06;;;30.51;26.85
46199;BME280;31928;52.104;10.030;2022-08-21T11:11:27;100462.78;;;30.58;26.58
46199;BME280;31928;52.104;10.030;2022-08-21T11:16:54;100462.97;;;30.86;29.48
46199;BME280;31928;52.104;10.030;2022-08-21T11:19:28;100453.63;;;30.90;28.51
46199;BME280;31928;52.104;10.030;2022-08-21T11:22:13;100466.13;;;31.08;29.66
46199;BME280;31928;52.104;10.030;2022-08-21T11:27:21;100453.44;;;31.19;28.44
46199;BME280;31928;52.104;10.030;2022-08-21T11:29:57;100456.66;;;31.21;28.47
46199;BME280;31928;52.104;10.030;2022-08-21T11:32:55;100456.91;;;31.28;29.27
46199;BME280;31928;52.104;10.030;2022-08-21T11:38:41;100452.50;;;31.15;26.73
46199;BME280;31928;52.104;10.030;2022-08-21T11:41:27;100460.34;;;31.25;28.44
46199;BME280;31928;52.104;10.030;2022-08-21T11:51:50;100450.66;;;31.66;28.37
46199;BME280;31928;52.104;10.030;2022-08-21T11:59:40;100442.00;;;31.95;26.53
46199;BME280;31928;52.104;10.030;2022-08-21T12:02:13;100452.19;;;32.03;25.64
46199;BME280;31928;52.104;10.030;2022-08-21T12:04:46;100444.06;;;32.10;26.14
46199;BME280;31928;52.104;10.030;2022-08-21T12:07:28;100446.69;;;32.19;26.04
46199;BME280;31928;52.104;10.030;2022-08-21T12:09:57;100443.75;;;32.27;25.54
46199;BME280;31928;52.104;10.030;2022-08-21T12:12:33;100440.03;;;32.35;26.66
46199;BME280;31928;52.104;10.030;2022-08-21T12:18:27;100437.69;;;32.64;27.13
46199;BME280;31928;52.104;10.030;2022-08-21T12:23:27;100438.47;;;32.65;24.91
46199;BME280;31928;52.104;10.030;2022-08-21T12:26:20;100434.47;;;32.78;25.94
46199;BME280;31928;52.104;10.030;2022-08-21T12:28:48;100426.69;;;32.83;25.10
46199;BME280;31928;52.104;10.030;2022-08-21T12:31:23;100431.78;;;32.96;25.21
46199;BME280;31928;52.104;10.030;2022-08-21T12:33:56;100435.31;;;33.09;25.09
46199;BME280;31928;52.104;10.030;2022-08-21T12:36:38;100432.78;;;33.19;24.43
46199;BME280;31928;52.104;10.030;2022-08-21T12:39:12;100440.22;;;33.31;24.71
46199;BME280;31928;52.104;10.030;2022-08-21T12:44:53;100428.81;;;33.51;25.51
46199;BME280;31928;52.104;10.030;2022-08-21T12:47:52;100424.06;;;33.52;25.20
46199;BME280;31928;52.104;10.030;2022-08-21T12:50:31;100427.88;;;33.47;24.04
46199;BME280;31928;52.104;10.030;2022-08-21T12:53:05;100421.88;;;33.45;23.83
46199;BME280;31928;52.104;10.030;2022-08-21T12:55:46;100417.75;;;33.39;23.17
46199;BME280;31928;52.104;10.030;2022-08-21T12:58:23;100415.59;;;33.48;25.09
46199;BME280;31928;52.104;10.030;2022-08-21T13:01:00;100414.44;;;33.49;23.14
46199;BME280;31928;52.104;10.030;2022-08-21T13:03:28;100422.53;;;33.54;23.06
46199;BME280;31928;52.104;10.030;2022-08-21T13:05:55;100414.31;;;33.61;21.89
46199;BME280;31928;52.104;10.030;2022-08-21T13:08:22;100418.88;;;33.69;22.29
46199;BME280;31928;52.104;10.030;2022-08-21T13:10:59;100408.00;;;33.79;23.40
46199;BME280;31928;52.104;10.030;2022-08-21T13:13:40;100414.25;;;33.76;21.55
46199;BME280;31928;52.104;10.030;2022-08-21T13:16:20;100420.28;;;33.78;22.72
46199;BME280;31928;52.104;10.030;2022-08-21T13:19:07;100431.50;;;33.82;22.46
46199;BME280;31928;52.104;10.030;2022-08-21T13:21:42;100411.72;;;33.68;23.13
46199;BME280;31928;52.104;10.030;2022-08-21T13:27:17;100414.03;;;33.66;23.16
46199;BME280;31928;52.104;10.030;2022-08-21T13:29:44;100410.66;;;33.57;22.14
46199;BME280;31928;52.104;10.030;2022-08-21T13:32:22;100408.25;;;33.55;21.59
46199;BME280;31928;52.104;10.030;2022-08-21T13:34:51;100407.25;;;33.48;21.45
46199;BME280;31928;52.104;10.030;2022-08-21T13:37:21;100396.13;;;33.48;22.21
46199;BME280;31928;52.104;10.030;2022-08-21T13:39:51;100402.41;;;33.45;22.95
46199;BME280;31928;52.104;10.030;2022-08-21T13:42:18;100394.44;;;33.44;22.39
46199;BME280;31928;52.104;10.030;2022-08-21T13:44:47;100401.63;;;33.45;22.36
46199;BME280;31928;52.104;10.030;2022-08-21T13:47:16;100392.97;;;33.49;22.00
46199;BME280;31928;52.104;10.030;2022-08-21T13:49:45;100401.44;;;33.53;21.73
46199;BME280;31928;52.104;10.030;2022-08-21T13:52:16;100393.19;;;33.56;22.90
46199;BME280;31928;52.104;10.030;2022-08-21T13:54:43;100398.81;;;33.60;23.16
46199;BME280;31928;52.104;10.030;2022-08-21T13:57:40;100399.09;;;33.74;23.43
46199;BME280;31928;52.104;10.030;2022-08-21T14:00:20;100401.03;;;33.89;23.63
46199;BME280;31928;52.104;10.030;2022-08-21T14:02:52;100397.94;;;33.94;23.08
46199;BME280;31928;52.104;10.030;2022-08-21T14:05:32;100394.75;;;34.11;23.46
46199;BME280;31928;52.104;10.030;2022-08-21T14:08:12;100383.50;;;34.26;23.66
46199;BME280;31928;52.104;10.030;2022-08-21T14:10:44;100388.50;;;34.36;22.29
46199;BME280;31928;52.104;10.030;2022-08-21T14:13:41;100391.31;;;34.58;23.93
46199;BME280;31928;52.104;10.030;2022-08-21T14:16:19;100396.56;;;34.63;23.22
46199;BME280;31928;52.104;10.030;2022-08-21T14:18:52;100398.19;;;34.64;21.07
46199;BME280;31928;52.104;10.030;2022-08-21T14:21:45;100395.66;;;34.78;22.48
46199;BME280;31928;52.104;10.030;2022-08-21T14:24:29;100397.03;;;34.65;22.24
46199;BME280;31928;52.104;10.030;2022-08-21T14:27:04;100389.84;;;34.45;21.82
46199;BME280;31928;52.104;10.030;2022-08-21T14:29:36;100389.66;;;34.35;21.92
46199;BME280;31928;52.104;10.030;2022-08-21T14:32:36;100387.75;;;34.39;23.34
46199;BME280;31928;52.104;10.030;2022-08-21T14:35:10;100383.53;;;34.07;22.28
46199;BME280;31928;52.104;10.030;2022-08-21T14:37:37;100377.53;;;34.05;21.45
46199;BME280;31928;52.104;10.030;2022-08-21T14:40:04;100371.16;;;34.05;22.01
46199;BME280;31928;52.104;10.030;2022-08-21T14:42:31;100385.38;;;34.00;21.42
46199;BME280;31928;52.104;10.030;2022-08-21T14:45:07;100389.69;;;33.97;21.18
46199;BME280;31928;52.104;10.030;2022-08-21T14:47:37;100388.56;;;33.83;21.46
46199;BME280;31928;52.104;10.030;2022-08-21T14:50:03;100390.63;;;33.67;21.62
46199;BME280;31928;52.104;10.030;2022-08-21T14:52:30;100383.59;;;33.54;21.46
46199;BME280;31928;52.104;10.030;2022-08-21T14:54:56;100376.94;;;33.43;21.89
46199;BME280;31928;52.104;10.030;2022-08-21T14:57:24;100388.28;;;33.35;21.89
46199;BME280;31928;52.104;10.030;2022-08-21T14:59:54;100385.69;;;33.26;22.26
46199;BME280;31928;52.104;10.030;2022-08-21T15:02:26;100377.63;;;33.21;22.71
46199;BME280;31928;52.104;10.030;2022-08-21T15:04:53;100383.91;;;33.18;22.58
46199;BME280;31928;52.104;10.030;2022-08-21T15:07:20;100375.84;;;33.13;22.99
46199;BME280;31928;52.104;10.030;2022-08-21T15:09:46;100377.75;;;33.09;23.04
46199;BME280;31928;52.104;10.030;2022-08-21T15:12:13;100369.78;;;33.08;22.80
46199;BME280;31928;52.104;10.030;2022-08-21T15:14:41;100381.25;;;33.06;22.66
46199;BME280;31928;52.104;10.030;2022-08-21T15:17:09;100368.97;;;33.07;23.07
46199;BME280;31928;52.104;10.030;2022-08-21T15:19:36;100383.31;;;33.09;22.51
46199;BME280;31928;52.104;10.030;2022-08-21T15:22:03;100375.41;;;33.11;22.74
46199;BME280;31928;52.104;10.030;2022-08-21T15:24:31;100376.31;;;33.15;22.70
46199;BME280;31928;52.104;10.030;2022-08-21T15:27:00;100378.44;;;33.22;22.77
46199;BME280;31928;52.104;10.030;2022-08-21T15:29:29;100374.13;;;33.24;22.73
46199;BME280;31928;52.104;10.030;2022-08-21T15:32:01;100379.84;;;33.31;22.91
46199;BME280;31928;52.104;10.030;2022-08-21T15:34:30;100376.63;;;33.29;22.71
46199;BME280;31928;52.104;10.030;2022-08-21T15:36:57;100379.69;;;33.24;22.51
46199;BME280;31928;52.104;10.030;2022-08-21T15:39:25;100380.69;;;33.16;23.00
46199;BME280;31928;52.104;10.030;2022-08-21T15:41:57;100370.66;;;33.12;22.73
46199;BME280;31928;52.104;10.030;2022-08-21T15:44:25;100374.59;;;33.11;22.67
46199;BME280;31928;52.104;10.030;2022-08-21T15:46:52;100377.31;;;33.07;22.77
46199;BME280;31928;52.104;10.030;2022-08-21T15:49:18;100380.78;;;33.04;22.41
46199;BME280;31928;52.104;10.030;2022-08-21T15:51:45;100386.16;;;32.97;22.97
46199;BME280;31928;52.104;10.030;2022-08-21T15:54:11;100392.34;;;32.91;22.76
46199;BME280;31928;52.104;10.030;2022-08-21T15:56:39;100393.78;;;32.85;22.68
46199;BME280;31928;52.104;10.030;2022-08-21T15:59:13;100385.91;;;32.87;23.06
46199;BME280;31928;52.104;10.030;2022-08-21T16:01:41;100387.59;;;32.76;22.73
46199;BME280;31928;52.104;10.030;2022-08-21T16:04:14;100384.72;;;32.73;22.94
46199;BME280;31928;52.104;10.030;2022-08-21T16:06:42;100388.41;;;32.61;22.86
46199;BME280;31928;52.104;10.030;2022-08-21T16:09:22;100389.84;;;32.55;23.09
46199;BME280;31928;52.104;10.030;2022-08-21T16:11:50;100389.97;;;32.47;23.03
46199;BME280;31928;52.104;10.030;2022-08-21T16:14:17;100393.00;;;32.42;23.60
46199;BME280;31928;52.104;10.030;2022-08-21T16:16:44;100389.78;;;32.40;23.25
46199;BME280;31928;52.104;10.030;2022-08-21T16:19:11;100388.53;;;32.37;23.30
46199;BME280;31928;52.104;10.030;2022-08-21T16:21:38;100392.09;;;32.38;23.42
46199;BME280;31928;52.104;10.030;2022-08-21T16:24:05;100384.97;;;32.37;23.53
46199;BME280;31928;52.104;10.030;2022-08-21T16:26:32;100379.41;;;32.37;23.48
46199;BME280;31928;52.104;10.030;2022-08-21T16:29:00;100383.78;;;32.38;23.42
46199;BME280;31928;52.104;10.030;2022-08-21T16:31:29;100382.19;;;32.37;23.23
46199;BME280;31928;52.104;10.030;2022-08-21T16:33:57;100385.28;;;32.35;24.76
46199;BME280;31928;52.104;10.030;2022-08-21T16:36:24;100383.59;;;32.31;24.18
46199;BME280;31928;52.104;10.030;2022-08-21T16:38:55;100380.72;;;32.27;24.25
46199;BME280;31928;52.104;10.030;2022-08-21T16:41:23;100377.75;;;32.21;24.28
46199;BME280;31928;52.104;10.030;2022-08-21T16:43:52;100375.13;;;32.12;24.48
46199;BME280;31928;52.104;10.030;2022-08-21T16:46:20;100373.34;;;32.04;24.72
46199;BME280;31928;52.104;10.030;2022-08-21T16:48:47;100376.94;;;31.93;25.17
46199;BME280;31928;52.104;10.030;2022-08-21T16:51:15;100366.00;;;31.84;24.33
46199;BME280;31928;52.104;10.030;2022-08-21T16:53:42;100368.56;;;31.77;24.25
46199;BME280;31928;52.104;10.030;2022-08-21T16:56:10;100369.16;;;31.71;24.69
46199;BME280;31928;52.104;10.030;2022-08-21T16:58:39;100373.00;;;31.66;24.86
46199;BME280;31928;52.104;10.030;2022-08-21T17:01:09;100369.75;;;31.64;25.01
46199;BME280;31928;52.104;10.030;2022-08-21T17:03:43;100370.25;;;31.55;24.90
46199;BME280;31928;52.104;10.030;2022-08-21T17:06:12;100367.75;;;31.50;25.33
46199;BME280;31928;52.104;10.030;2022-08-21T17:08:40;100374.66;;;31.44;26.04
46199;BME280;31928;52.104;10.030;2022-08-21T17:11:21;100371.88;;;31.56;26.92
46199;BME280;31928;52.104;10.030;2022-08-21T17:14:07;100369.09;;;31.44;26.46
46199;BME280;31928;52.104;10.030;2022-08-21T17:16:34;100369.13;;;31.32;25.97
46199;BME280;31928;52.104;10.030;2022-08-21T17:19:01;100371.31;;;31.26;26.32
46199;BME280;31928;52.104;10.030;2022-08-21T17:21:27;100375.50;;;31.20;27.56
46199;BME280;31928;52.104;10.030;2022-08-21T17:23:54;100364.19;;;31.13;25.86
46199;BME280;31928;52.104;10.030;2022-08-21T17:26:21;100371.94;;;31.08;26.85
46199;BME280;31928;52.104;10.030;2022-08-21T17:28:48;100370.53;;;31.02;28.44
46199;BME280;31928;52.104;10.030;2022-08-21T17:31:20;100379.09;;;30.97;28.99
46199;BME280;31928;52.104;10.030;2022-08-21T17:33:49;100375.34;;;30.93;28.77
46199;BME280;31928;52.104;10.030;2022-08-21T17:36:19;100376.28;;;30.85;29.91
46199;BME280;31928;52.104;10.030;2022-08-21T17:38:47;100371.31;;;30.79;27.79
46199;BME280;31928;52.104;10.030;2022-08-21T17:41:14;100377.91;;;30.74;30.53
46199;BME280;31928;52.104;10.030;2022-08-21T17:43:41;100380.09;;;30.69;29.61
46199;BME280;31928;52.104;10.030;2022-08-21T17:46:11;100383.69;;;30.69;30.47
46199;BME280;31928;52.104;10.030;2022-08-21T17:48:40;100381.34;;;30.59;30.67
46199;BME280;31928;52.104;10.030;2022-08-21T17:51:12;100381.56;;;30.54;28.22
46199;BME280;31928;52.104;10.030;2022-08-21T17:53:39;100380.19;;;30.48;28.07
46199;BME280;31928;52.104;10.030;2022-08-21T17:56:06;100382.34;;;30.43;30.34
46199;BME280;31928;52.104;10.030;2022-08-21T17:58:34;100383.38;;;30.38;30.54
46199;BME280;31928;52.104;10.030;2022-08-21T18:01:01;100380.38;;;30.32;31.22
46199;BME280;31928;52.104;10.030;2022-08-21T18:03:29;100383.34;;;30.27;31.22
46199;BME280;31928;52.104;10.030;2022-08-21T18:06:02;100382.41;;;30.23;29.48
46199;BME280;31928;52.104;10.030;2022-08-21T18:08:29;100388.97;;;30.18;31.78
46199;BME280;31928;52.104;10.030;2022-08-21T18:10:57;100391.13;;;30.13;29.27
46199;BME280;31928;52.104;10.030;2022-08-21T18:13:27;100390.88;;;30.06;28.31
46199;BME280;31928;52.104;10.030;2022-08-21T18:15:55;100400.88;;;29.98;27.88
46199;BME280;31928;52.104;10.030;2022-08-21T18:18:24;100397.03;;;29.91;30.87
46199;BME280;31928;52.104;10.030;2022-08-21T18:20:51;100393.50;;;29.82;31.42
46199;BME280;31928;52.104;10.030;2022-08-21T18:23:18;100398.31;;;29.73;28.67
46199;BME280;31928;52.104;10.030;2022-08-21T18:26:06;100404.38;;;29.67;31.27
46199;BME280;31928;52.104;10.030;2022-08-21T18:28:35;100412.38;;;29.60;31.16
46199;BME280;31928;52.104;10.030;2022-08-21T18:31:07;100410.50;;;29.52;31.67
46199;BME280;31928;52.104;10.030;2022-08-21T18:33:34;100412.41;;;29.39;32.02